createdAt,value
2022-12-18T00:02:09.730Z,100.00
2022-12-18T00:07:25.287Z,100.00
2022-12-18T00:09:56.199Z,100.00
2022-12-18T00:17:59.880Z,100.00
2022-12-18T00:20:44.717Z,100.00
2022-12-18T00:23:14.013Z,100.00
2022-12-18T00:25:45.965Z,100.00
2022-12-18T00:28:13.838Z,100.00
2022-12-18T00:30:42.733Z,100.00
2022-12-18T00:33:19.292Z,100.00
2022-12-18T00:38:37.275Z,100.00
2022-12-18T00:41:10.762Z,100.00
2022-12-18T00:43:40.653Z,100.00
2022-12-18T00:48:51.679Z,100.00
2022-12-18T00:51:19.597Z,100.00
2022-12-18T00:54:03.594Z,100.00
2022-12-18T00:56:37.361Z,100.00
2022-12-18T00:59:09.056Z,100.00
2022-12-18T01:01:46.109Z,100.00
2022-12-18T01:04:14.463Z,100.00
2022-12-18T01:06:45.227Z,100.00
2022-12-18T01:09:16.294Z,100.00
2022-12-18T01:11:45.574Z,100.00
2022-12-18T01:14:16.228Z,100.00
2022-12-18T01:19:34.388Z,100.00
2022-12-18T01:22:07.199Z,100.00
2022-12-18T01:24:39.066Z,100.00
2022-12-18T01:35:44.694Z,100.00
2022-12-18T01:38:12.996Z,100.00
2022-12-18T01:40:43.073Z,100.00
2022-12-18T01:43:18.886Z,100.00
2022-12-18T01:45:50.696Z,100.00
2022-12-18T01:48:21.735Z,100.00
2022-12-18T01:50:52.823Z,100.00
2022-12-18T01:53:26.992Z,100.00
2022-12-18T01:58:46.688Z,100.00
2022-12-18T02:01:18.691Z,100.00
2022-12-18T02:04:02.547Z,100.00
2022-12-18T02:06:36.486Z,100.00
2022-12-18T02:09:13.232Z,100.00
2022-12-18T02:11:49.600Z,100.00
2022-12-18T02:14:30.517Z,100.00
2022-12-18T02:20:07.272Z,100.00
2022-12-18T02:25:32.693Z,100.00
2022-12-18T02:28:12.205Z,100.00
2022-12-18T02:30:46.959Z,100.00
2022-12-18T02:33:18.524Z,100.00
2022-12-18T02:35:50.325Z,100.00
2022-12-18T02:38:19.979Z,100.00
2022-12-18T02:40:53.664Z,100.00
2022-12-18T02:43:41.676Z,100.00
2022-12-18T02:46:29.484Z,100.00
2022-12-18T02:49:07.153Z,100.00
2022-12-18T02:51:50.167Z,100.00
2022-12-18T02:54:23.683Z,100.00
2022-12-18T02:56:58.493Z,100.00
2022-12-18T02:59:47.480Z,100.00
2022-12-18T03:02:22.754Z,100.00
2022-12-18T03:05:03.118Z,100.00
2022-12-18T03:07:37.553Z,100.00
2022-12-18T03:10:11.032Z,100.00
2022-12-18T03:12:42.805Z,100.00
2022-12-18T03:15:22.794Z,100.00
2022-12-18T03:18:05.098Z,100.00
2022-12-18T03:20:36.650Z,100.00
2022-12-18T03:23:11.292Z,100.00
2022-12-18T03:25:43.048Z,100.00
2022-12-18T03:28:13.269Z,100.00
2022-12-18T03:30:49.189Z,100.00
2022-12-18T03:33:23.112Z,100.00
2022-12-18T03:35:57.326Z,100.00
2022-12-18T03:38:26.245Z,100.00
2022-12-18T03:40:59.443Z,100.00
2022-12-18T03:43:38.927Z,100.00
2022-12-18T03:46:24.638Z,100.00
2022-12-18T03:51:49.373Z,100.00
2022-12-18T03:54:21.605Z,100.00
2022-12-18T03:57:03.268Z,100.00
2022-12-18T03:59:40.700Z,100.00
2022-12-18T04:02:13.953Z,100.00
2022-12-18T04:05:01.280Z,100.00
2022-12-18T04:07:37.024Z,100.00
2022-12-18T04:10:12.276Z,100.00
2022-12-18T04:12:47.217Z,100.00
2022-12-18T04:15:20.634Z,100.00
2022-12-18T04:18:02.140Z,100.00
2022-12-18T04:20:38.432Z,100.00
2022-12-18T04:23:12.072Z,100.00
2022-12-18T04:25:42.714Z,100.00
2022-12-18T04:28:28.308Z,100.00
2022-12-18T04:30:57.760Z,100.00
2022-12-18T04:33:53.643Z,100.00
2022-12-18T04:36:27.315Z,100.00
2022-12-18T04:38:59.372Z,100.00
2022-12-18T04:41:29.746Z,100.00
2022-12-18T04:44:07.090Z,100.00
2022-12-18T04:46:42.373Z,100.00
2022-12-18T04:49:15.651Z,100.00
2022-12-18T04:51:53.434Z,100.00
2022-12-18T04:54:22.428Z,100.00
2022-12-18T04:56:52.584Z,100.00
2022-12-18T04:59:28.479Z,100.00
2022-12-18T05:02:00.477Z,100.00
2022-12-18T05:07:16.785Z,100.00
2022-12-18T05:09:48.194Z,100.00
2022-12-18T05:12:18.032Z,100.00
2022-12-18T05:14:48.199Z,100.00
2022-12-18T05:17:20.297Z,100.00
2022-12-18T05:19:54.561Z,100.00
2022-12-18T05:22:24.944Z,100.00
2022-12-18T05:24:53.878Z,100.00
2022-12-18T05:27:24.378Z,100.00
2022-12-18T05:29:52.646Z,100.00
2022-12-18T05:32:22.234Z,100.00
2022-12-18T05:34:57.035Z,100.00
2022-12-18T05:37:57.014Z,100.00
2022-12-18T05:40:25.308Z,100.00
2022-12-18T05:42:54.949Z,100.00
2022-12-18T05:45:23.525Z,100.00
2022-12-18T05:47:53.469Z,100.00
2022-12-18T05:50:26.843Z,100.00
2022-12-18T05:52:55.209Z,100.00
2022-12-18T05:55:26.008Z,100.00
2022-12-18T05:57:56.122Z,100.00
2022-12-18T06:00:38.407Z,100.00
2022-12-18T06:03:08.996Z,100.00
2022-12-18T06:05:55.940Z,100.00
2022-12-18T06:08:49.872Z,100.00
2022-12-18T06:11:20.504Z,100.00
2022-12-18T06:13:53.556Z,100.00
2022-12-18T06:16:27.995Z,100.00
2022-12-18T06:19:01.868Z,100.00
2022-12-18T06:21:35.862Z,100.00
2022-12-18T06:26:54.273Z,100.00
2022-12-18T06:29:23.238Z,100.00
2022-12-18T06:31:53.808Z,100.00
2022-12-18T06:34:42.229Z,100.00
2022-12-18T06:37:14.828Z,100.00
2022-12-18T06:39:46.878Z,100.00
2022-12-18T06:42:20.438Z,100.00
2022-12-18T06:44:49.092Z,100.00
2022-12-18T06:47:18.253Z,100.00
2022-12-18T06:49:50.552Z,100.00
2022-12-18T06:52:30.344Z,100.00
2022-12-18T06:55:00.711Z,100.00
2022-12-18T06:57:28.841Z,100.00
2022-12-18T07:00:11.329Z,100.00
2022-12-18T07:02:41.319Z,100.00
2022-12-18T07:08:12.952Z,100.00
2022-12-18T07:10:58.945Z,100.00
2022-12-18T07:13:28.313Z,100.00
2022-12-18T07:15:57.717Z,100.00
2022-12-18T07:18:32.290Z,100.00
2022-12-18T07:21:14.529Z,100.00
2022-12-18T07:23:51.622Z,100.00
2022-12-18T07:29:09.300Z,100.00
2022-12-18T07:31:45.497Z,100.00
2022-12-18T07:34:29.868Z,100.00
2022-12-18T07:39:55.856Z,100.00
2022-12-18T07:42:53.288Z,100.00
2022-12-18T07:45:38.308Z,100.00
2022-12-18T07:54:26.848Z,100.00
2022-12-18T07:57:09.930Z,100.00
2022-12-18T07:59:55.802Z,100.00
2022-12-18T08:02:25.507Z,100.00
2022-12-18T08:05:02.053Z,100.00
2022-12-18T08:07:30.650Z,100.00
2022-12-18T08:10:01.566Z,100.00
2022-12-18T08:18:35.783Z,100.00
2022-12-18T08:21:22.827Z,100.00
2022-12-18T08:24:08.031Z,100.00
2022-12-18T08:27:20.951Z,100.00
2022-12-18T08:29:53.011Z,100.00
2022-12-18T08:32:23.789Z,100.00
2022-12-18T08:34:53.350Z,100.00
2022-12-18T08:37:28.730Z,100.00
2022-12-18T08:40:06.738Z,100.00
2022-12-18T08:42:52.086Z,100.00
2022-12-18T08:45:24.085Z,100.00
2022-12-18T08:47:55.847Z,100.00
2022-12-18T08:50:25.608Z,100.00
2022-12-18T08:52:55.158Z,100.00
2022-12-18T08:55:27.685Z,100.00
2022-12-18T08:57:56.372Z,100.00
2022-12-18T09:00:29.669Z,100.00
2022-12-18T09:02:58.534Z,100.00
2022-12-18T09:05:33.028Z,100.00
2022-12-18T09:08:04.436Z,100.00
2022-12-18T09:10:43.367Z,100.00
2022-12-18T09:13:24.278Z,100.00
2022-12-18T09:16:01.775Z,100.00
2022-12-18T09:18:31.177Z,100.00
2022-12-18T09:21:06.100Z,100.00
2022-12-18T09:23:44.324Z,100.00
2022-12-18T09:26:17.761Z,100.00
2022-12-18T09:28:46.290Z,100.00
2022-12-18T09:31:21.695Z,100.00
2022-12-18T09:36:37.342Z,100.00
2022-12-18T09:39:08.639Z,100.00
2022-12-18T09:41:47.199Z,100.00
2022-12-18T09:44:47.690Z,100.00
2022-12-18T09:51:02.246Z,100.00
2022-12-18T09:53:36.691Z,100.00
2022-12-18T09:56:07.007Z,100.00
2022-12-18T09:59:02.632Z,100.00
2022-12-18T10:01:40.175Z,96.62
2022-12-18T10:04:21.261Z,98.73
2022-12-18T10:07:09.109Z,99.92
2022-12-18T10:10:03.308Z,100.00
2022-12-18T10:12:35.846Z,100.00
2022-12-18T10:15:08.558Z,100.00
2022-12-18T10:17:41.071Z,100.00
2022-12-18T10:20:17.352Z,98.62
2022-12-18T10:22:50.382Z,99.54
2022-12-18T10:25:23.723Z,96.85
2022-12-18T10:27:54.645Z,97.04
2022-12-18T10:30:28.338Z,98.21
2022-12-18T10:32:57.387Z,99.05
2022-12-18T10:35:29.114Z,96.01
2022-12-18T10:38:06.188Z,96.70
2022-12-18T10:40:51.837Z,97.62
2022-12-18T10:43:27.434Z,100.00
2022-12-18T10:46:04.609Z,100.00
2022-12-18T10:48:34.106Z,100.00
2022-12-18T10:51:13.710Z,100.00
2022-12-18T10:53:44.476Z,100.00
2022-12-18T10:56:21.928Z,100.00
2022-12-18T10:59:08.590Z,100.00
2022-12-18T11:01:49.025Z,100.00
2022-12-18T11:04:21.987Z,100.00
2022-12-18T11:07:01.378Z,100.00
2022-12-18T11:09:34.454Z,100.00
2022-12-18T11:12:05.170Z,94.87
2022-12-18T11:14:36.439Z,86.77
2022-12-18T11:17:25.393Z,88.67
2022-12-18T11:19:56.444Z,86.85
2022-12-18T11:22:33.421Z,83.11
2022-12-18T11:30:51.170Z,78.65
2022-12-18T11:36:11.949Z,79.92
2022-12-18T11:39:18.386Z,80.51
2022-12-18T11:42:28.452Z,79.08
2022-12-18T11:45:08.455Z,79.23
2022-12-18T11:47:42.824Z,76.39
2022-12-18T11:50:21.075Z,76.53
2022-12-18T11:52:56.705Z,74.28
2022-12-18T11:55:45.554Z,76.19
2022-12-18T11:58:26.404Z,76.91
2022-12-18T12:01:06.576Z,71.39
2022-12-18T12:03:56.400Z,70.57
2022-12-18T12:06:32.520Z,77.82
2022-12-18T12:11:57.367Z,77.85
2022-12-18T12:14:31.070Z,77.76
2022-12-18T12:17:01.518Z,80.71
2022-12-18T12:19:40.544Z,79.58
2022-12-18T12:25:07.128Z,85.59
2022-12-18T12:27:45.047Z,88.23
2022-12-18T12:30:23.390Z,91.38
2022-12-18T12:33:03.189Z,92.14
2022-12-18T12:35:35.352Z,91.94
2022-12-18T12:38:21.674Z,94.41
2022-12-18T12:41:02.115Z,89.88
2022-12-18T12:43:49.232Z,84.73
2022-12-18T12:49:18.919Z,88.04
2022-12-18T12:57:24.979Z,89.71
2022-12-18T13:00:05.719Z,94.43
2022-12-18T13:02:50.406Z,94.91
2022-12-18T13:05:32.585Z,90.66
2022-12-18T13:08:03.695Z,92.24
2022-12-18T13:11:19.833Z,92.99
2022-12-18T13:13:52.028Z,93.20
2022-12-18T13:16:41.828Z,99.50
2022-12-18T13:19:23.939Z,100.00
2022-12-18T13:21:59.465Z,100.00
2022-12-18T13:24:29.049Z,100.00
2022-12-18T13:27:01.342Z,100.00
2022-12-18T13:29:54.292Z,100.00
2022-12-18T13:32:31.629Z,100.00
2022-12-18T13:35:23.709Z,100.00
2022-12-18T13:37:59.607Z,100.00
2022-12-18T13:40:55.435Z,100.00
2022-12-18T13:46:25.769Z,100.00
2022-12-18T13:49:03.917Z,100.00
2022-12-18T13:51:34.301Z,100.00
2022-12-18T13:54:06.530Z,100.00
2022-12-18T13:56:35.908Z,100.00
2022-12-18T13:59:25.110Z,100.00
2022-12-18T14:01:55.325Z,100.00
2022-12-18T14:04:30.753Z,100.00
2022-12-18T14:07:09.224Z,100.00
2022-12-18T14:10:12.271Z,100.00
2022-12-18T14:13:03.804Z,100.00
2022-12-18T14:15:43.875Z,100.00
2022-12-18T14:18:22.902Z,100.00
2022-12-18T14:21:02.549Z,100.00
2022-12-18T14:23:42.562Z,100.00
2022-12-18T14:26:43.488Z,100.00
2022-12-18T14:32:18.983Z,100.00
2022-12-18T14:34:56.765Z,100.00
2022-12-18T14:37:55.430Z,100.00
2022-12-18T14:54:40.962Z,100.00
2022-12-18T15:05:11.306Z,100.00
2022-12-18T15:07:45.131Z,100.00
2022-12-18T15:10:14.702Z,100.00
2022-12-18T15:12:56.642Z,100.00
2022-12-18T15:15:47.302Z,100.00
2022-12-18T15:28:35.625Z,100.00
2022-12-18T15:31:37.235Z,100.00
2022-12-18T15:40:06.310Z,100.00
2022-12-18T15:52:03.201Z,100.00
2022-12-18T15:54:49.757Z,100.00
2022-12-18T16:03:56.810Z,100.00
2022-12-18T16:07:14.455Z,100.00
2022-12-18T16:18:18.872Z,100.00
2022-12-18T16:21:03.849Z,100.00
2022-12-18T16:23:39.269Z,100.00
2022-12-18T16:26:28.784Z,100.00
2022-12-18T16:29:09.736Z,100.00
2022-12-18T16:34:35.909Z,100.00
2022-12-18T16:37:06.736Z,100.00
2022-12-18T16:42:39.337Z,100.00
2022-12-18T16:45:08.064Z,100.00
2022-12-18T16:47:36.722Z,100.00
2022-12-18T16:50:08.137Z,100.00
2022-12-18T16:52:36.331Z,100.00
2022-12-18T16:55:05.085Z,100.00
2022-12-18T16:57:35.664Z,100.00
2022-12-18T17:03:00.131Z,100.00
2022-12-18T17:08:13.202Z,100.00
2022-12-18T17:10:42.496Z,100.00
2022-12-18T17:13:25.881Z,100.00
2022-12-18T17:15:58.110Z,100.00
2022-12-18T17:18:31.200Z,100.00
2022-12-18T17:21:01.163Z,100.00
2022-12-18T17:23:37.009Z,100.00
2022-12-18T17:26:07.731Z,100.00
2022-12-18T17:28:40.169Z,100.00
2022-12-18T17:31:13.626Z,100.00
2022-12-18T17:33:43.762Z,100.00
2022-12-18T17:36:14.632Z,100.00
2022-12-18T17:38:51.180Z,100.00
2022-12-18T17:44:07.457Z,100.00
2022-12-18T17:46:49.917Z,100.00
2022-12-18T17:49:18.470Z,100.00
2022-12-18T17:51:50.806Z,100.00
2022-12-18T17:54:23.102Z,100.00
2022-12-18T17:56:53.566Z,100.00
2022-12-18T18:13:06.271Z,100.00
2022-12-18T18:22:11.697Z,100.00
2022-12-18T18:36:37.242Z,100.00
2022-12-18T18:39:30.691Z,100.00
2022-12-18T18:42:01.650Z,100.00
2022-12-18T20:38:27.130Z,100.00
2022-12-18T20:58:34.306Z,100.00
2022-12-18T21:16:09.686Z,100.00
2022-12-18T21:42:34.945Z,100.00
2022-12-18T21:45:42.183Z,100.00
2022-12-18T21:57:21.039Z,100.00
2022-12-18T22:03:17.685Z,100.00
2022-12-18T22:09:04.258Z,100.00
2022-12-18T22:24:09.985Z,100.00
2022-12-18T22:29:59.362Z,100.00
2022-12-18T22:39:01.360Z,100.00
2022-12-18T22:41:39.852Z,100.00
2022-12-18T22:44:17.487Z,100.00
2022-12-18T22:47:11.382Z,100.00
2022-12-18T23:36:23.589Z,100.00
2022-12-18T23:42:01.606Z,100.00
